sensor_id;sensor_type;location;lat;lon;timestamp;P1;durP1;ratioP1;P2;durP2;ratioP2
17625;SDS011;8931;50.042;19.930;2022-07-29T00:00:57;22.80;;;20.17;;
17625;SDS011;8931;50.042;19.930;2022-07-29T00:02:01;22.60;;;20.47;;
17625;SDS011;8931;50.042;19.930;2022-07-29T00:03:05;22.10;;;19.93;;
17625;SDS011;8931;50.042;19.930;2022-07-29T00:04:06;21.73;;;19.83;;
17625;SDS011;8931;50.042;19.930;2022-07-29T00:05:07;21.63;;;19.70;;
17625;SDS011;8931;50.042;19.930;2022-07-29T00:06:15;24.07;;;20.13;;
17625;SDS011;8931;50.042;19.930;2022-07-29T00:07:15;21.67;;;19.57;;
17625;SDS011;8931;50.042;19.930;2022-07-29T00:08:18;22.57;;;20.23;;
17625;SDS011;8931;50.042;19.930;2022-07-29T00:09:21;28.80;;;19.93;;
17625;SDS011;8931;50.042;19.930;2022-07-29T00:10:23;22.87;;;20.50;;
17625;SDS011;8931;50.042;19.930;2022-07-29T00:11:23;21.57;;;19.63;;
17625;SDS011;8931;50.042;19.930;2022-07-29T00:12:25;23.60;;;20.10;;
17625;SDS011;8931;50.042;19.930;2022-07-29T00:13:26;21.10;;;19.27;;
17625;SDS011;8931;50.042;19.930;2022-07-29T00:14:28;21.87;;;19.97;;
17625;SDS011;8931;50.042;19.930;2022-07-29T00:15:29;22.53;;;20.47;;
17625;SDS011;8931;50.042;19.930;2022-07-29T00:16:34;21.93;;;19.80;;
17625;SDS011;8931;50.042;19.930;2022-07-29T00:17:35;22.30;;;20.10;;
17625;SDS011;8931;50.042;19.930;2022-07-29T00:18:38;22.13;;;20.03;;
17625;SDS011;8931;50.042;19.930;2022-07-29T00:19:39;23.20;;;19.63;;
17625;SDS011;8931;50.042;19.930;2022-07-29T00:20:41;21.07;;;19.17;;
17625;SDS011;8931;50.042;19.930;2022-07-29T00:21:42;21.87;;;19.87;;
17625;SDS011;8931;50.042;19.930;2022-07-29T00:22:44;21.70;;;19.67;;
17625;SDS011;8931;50.042;19.930;2022-07-29T00:23:47;25.50;;;20.43;;
17625;SDS011;8931;50.042;19.930;2022-07-29T00:24:49;21.80;;;19.60;;
17625;SDS011;8931;50.042;19.930;2022-07-29T00:25:49;21.47;;;19.67;;
17625;SDS011;8931;50.042;19.930;2022-07-29T00:26:51;21.60;;;19.73;;
17625;SDS011;8931;50.042;19.930;2022-07-29T00:27:54;21.47;;;19.67;;
17625;SDS011;8931;50.042;19.930;2022-07-29T00:28:58;22.23;;;20.13;;
17625;SDS011;8931;50.042;19.930;2022-07-29T00:30:00;21.70;;;19.70;;
17625;SDS011;8931;50.042;19.930;2022-07-29T00:31:02;22.17;;;20.00;;
17625;SDS011;8931;50.042;19.930;2022-07-29T00:32:02;22.60;;;20.30;;
17625;SDS011;8931;50.042;19.930;2022-07-29T00:33:04;21.47;;;19.50;;
17625;SDS011;8931;50.042;19.930;2022-07-29T00:34:09;22.10;;;19.87;;
17625;SDS011;8931;50.042;19.930;2022-07-29T00:35:32;21.83;;;19.90;;
17625;SDS011;8931;50.042;19.930;2022-07-29T00:36:45;22.10;;;19.97;;
17625;SDS011;8931;50.042;19.930;2022-07-29T00:37:47;21.23;;;19.40;;
17625;SDS011;8931;50.042;19.930;2022-07-29T00:38:49;22.10;;;19.97;;
17625;SDS011;8931;50.042;19.930;2022-07-29T00:39:51;22.07;;;19.80;;
17625;SDS011;8931;50.042;19.930;2022-07-29T00:40:51;22.27;;;19.90;;
17625;SDS011;8931;50.042;19.930;2022-07-29T00:41:53;21.80;;;19.73;;
17625;SDS011;8931;50.042;19.930;2022-07-29T00:42:55;21.50;;;19.60;;
17625;SDS011;8931;50.042;19.930;2022-07-29T00:44:02;21.60;;;19.60;;
17625;SDS011;8931;50.042;19.930;2022-07-29T00:45:04;23.17;;;20.87;;
17625;SDS011;8931;50.042;19.930;2022-07-29T00:46:06;21.97;;;19.63;;
17625;SDS011;8931;50.042;19.930;2022-07-29T00:47:07;21.30;;;19.27;;
17625;SDS011;8931;50.042;19.930;2022-07-29T00:48:09;23.33;;;19.70;;
17625;SDS011;8931;50.042;19.930;2022-07-29T00:49:12;23.33;;;19.90;;
17625;SDS011;8931;50.042;19.930;2022-07-29T00:50:14;21.23;;;19.20;;
17625;SDS011;8931;50.042;19.930;2022-07-29T00:51:15;23.20;;;19.30;;
17625;SDS011;8931;50.042;19.930;2022-07-29T00:52:18;23.80;;;19.73;;
17625;SDS011;8931;50.042;19.930;2022-07-29T00:53:19;22.07;;;19.83;;
17625;SDS011;8931;50.042;19.930;2022-07-29T00:54:21;20.90;;;19.07;;
17625;SDS011;8931;50.042;19.930;2022-07-29T00:55:25;21.10;;;19.23;;
17625;SDS011;8931;50.042;19.930;2022-07-29T00:56:29;22.33;;;20.30;;
17625;SDS011;8931;50.042;19.930;2022-07-29T00:57:30;21.60;;;19.63;;
17625;SDS011;8931;50.042;19.930;2022-07-29T00:58:32;21.73;;;19.67;;
17625;SDS011;8931;50.042;19.930;2022-07-29T00:59:34;21.50;;;19.60;;
17625;SDS011;8931;50.042;19.930;2022-07-29T01:00:36;21.60;;;19.70;;
17625;SDS011;8931;50.042;19.930;2022-07-29T01:01:37;22.10;;;19.63;;
17625;SDS011;8931;50.042;19.930;2022-07-29T01:02:40;21.80;;;19.83;;
17625;SDS011;8931;50.042;19.930;2022-07-29T01:03:40;22.97;;;20.73;;
17625;SDS011;8931;50.042;19.930;2022-07-29T01:04:44;22.73;;;20.63;;
17625;SDS011;8931;50.042;19.930;2022-07-29T01:05:44;26.30;;;20.83;;
17625;SDS011;8931;50.042;19.930;2022-07-29T01:06:46;25.43;;;20.30;;
17625;SDS011;8931;50.042;19.930;2022-07-29T01:07:48;23.20;;;20.80;;
17625;SDS011;8931;50.042;19.930;2022-07-29T01:08:52;23.03;;;20.83;;
17625;SDS011;8931;50.042;19.930;2022-07-29T01:09:53;22.67;;;20.43;;
17625;SDS011;8931;50.042;19.930;2022-07-29T01:10:56;26.00;;;21.30;;
17625;SDS011;8931;50.042;19.930;2022-07-29T01:11:57;22.77;;;20.37;;
17625;SDS011;8931;50.042;19.930;2022-07-29T01:13:00;24.07;;;21.33;;
17625;SDS011;8931;50.042;19.930;2022-07-29T01:14:02;24.53;;;21.30;;
17625;SDS011;8931;50.042;19.930;2022-07-29T01:15:04;23.23;;;20.83;;
17625;SDS011;8931;50.042;19.930;2022-07-29T01:16:10;23.97;;;21.57;;
17625;SDS011;8931;50.042;19.930;2022-07-29T01:17:19;23.77;;;21.23;;
17625;SDS011;8931;50.042;19.930;2022-07-29T01:18:22;24.80;;;20.93;;
17625;SDS011;8931;50.042;19.930;2022-07-29T01:19:33;23.97;;;21.53;;
17625;SDS011;8931;50.042;19.930;2022-07-29T01:20:51;25.00;;;21.97;;
17625;SDS011;8931;50.042;19.930;2022-07-29T01:22:02;25.53;;;21.30;;
17625;SDS011;8931;50.042;19.930;2022-07-29T01:24:47;23.23;;;21.13;;
17625;SDS011;8931;50.042;19.930;2022-07-29T01:26:03;23.27;;;20.90;;
17625;SDS011;8931;50.042;19.930;2022-07-29T01:27:24;28.23;;;21.80;;
17625;SDS011;8931;50.042;19.930;2022-07-29T01:28:41;24.27;;;21.67;;
17625;SDS011;8931;50.042;19.930;2022-07-29T01:29:49;26.23;;;21.80;;
17625;SDS011;8931;50.042;19.930;2022-07-29T01:30:54;31.83;;;21.80;;
17625;SDS011;8931;50.042;19.930;2022-07-29T01:31:56;23.70;;;21.33;;
17625;SDS011;8931;50.042;19.930;2022-07-29T01:33:05;23.20;;;20.73;;
17625;SDS011;8931;50.042;19.930;2022-07-29T01:34:10;26.87;;;22.00;;
17625;SDS011;8931;50.042;19.930;2022-07-29T01:35:18;25.53;;;21.53;;
17625;SDS011;8931;50.042;19.930;2022-07-29T01:36:23;26.03;;;20.80;;
17625;SDS011;8931;50.042;19.930;2022-07-29T01:37:45;24.23;;;21.23;;
17625;SDS011;8931;50.042;19.930;2022-07-29T01:38:49;25.73;;;21.80;;
17625;SDS011;8931;50.042;19.930;2022-07-29T01:39:55;24.07;;;20.80;;
17625;SDS011;8931;50.042;19.930;2022-07-29T01:40:58;23.67;;;21.33;;
17625;SDS011;8931;50.042;19.930;2022-07-29T01:42:06;23.80;;;21.50;;
17625;SDS011;8931;50.042;19.930;2022-07-29T01:43:14;26.63;;;21.60;;
17625;SDS011;8931;50.042;19.930;2022-07-29T01:44:20;23.57;;;21.10;;
17625;SDS011;8931;50.042;19.930;2022-07-29T01:45:24;26.00;;;21.27;;
17625;SDS011;8931;50.042;19.930;2022-07-29T01:46:30;23.77;;;21.20;;
17625;SDS011;8931;50.042;19.930;2022-07-29T01:47:35;23.77;;;21.00;;
17625;SDS011;8931;50.042;19.930;2022-07-29T01:48:44;22.73;;;20.40;;
17625;SDS011;8931;50.042;19.930;2022-07-29T01:49:46;22.83;;;20.50;;
17625;SDS011;8931;50.042;19.930;2022-07-29T01:50:52;22.50;;;20.20;;
17625;SDS011;8931;50.042;19.930;2022-07-29T01:51:57;22.33;;;20.43;;
17625;SDS011;8931;50.042;19.930;2022-07-29T01:53:01;23.73;;;21.37;;
17625;SDS011;8931;50.042;19.930;2022-07-29T01:54:06;27.03;;;21.73;;
17625;SDS011;8931;50.042;19.930;2022-07-29T01:55:11;24.83;;;22.30;;
17625;SDS011;8931;50.042;19.930;2022-07-29T01:56:15;23.60;;;21.30;;
17625;SDS011;8931;50.042;19.930;2022-07-29T01:57:18;24.53;;;22.13;;
17625;SDS011;8931;50.042;19.930;2022-07-29T01:58:21;24.17;;;21.60;;
17625;SDS011;8931;50.042;19.930;2022-07-29T01:59:25;27.20;;;21.97;;
17625;SDS011;8931;50.042;19.930;2022-07-29T02:00:27;23.60;;;21.43;;
17625;SDS011;8931;50.042;19.930;2022-07-29T02:01:29;24.70;;;21.80;;
17625;SDS011;8931;50.042;19.930;2022-07-29T02:02:32;24.17;;;21.60;;
17625;SDS011;8931;50.042;19.930;2022-07-29T02:03:35;23.10;;;20.97;;
17625;SDS011;8931;50.042;19.930;2022-07-29T02:04:38;23.27;;;20.87;;
17625;SDS011;8931;50.042;19.930;2022-07-29T02:05:41;22.73;;;20.27;;
17625;SDS011;8931;50.042;19.930;2022-07-29T02:06:44;23.33;;;20.93;;
17625;SDS011;8931;50.042;19.930;2022-07-29T02:07:46;23.10;;;20.80;;
17625;SDS011;8931;50.042;19.930;2022-07-29T02:08:49;22.00;;;20.03;;
17625;SDS011;8931;50.042;19.930;2022-07-29T02:09:51;22.37;;;20.27;;
17625;SDS011;8931;50.042;19.930;2022-07-29T02:10:54;22.93;;;20.33;;
17625;SDS011;8931;50.042;19.930;2022-07-29T02:11:56;21.93;;;20.03;;
17625;SDS011;8931;50.042;19.930;2022-07-29T02:13:02;22.93;;;20.43;;
17625;SDS011;8931;50.042;19.930;2022-07-29T02:14:03;22.30;;;20.10;;
17625;SDS011;8931;50.042;19.930;2022-07-29T02:15:07;21.90;;;19.90;;
17625;SDS011;8931;50.042;19.930;2022-07-29T02:16:08;22.37;;;20.30;;
17625;SDS011;8931;50.042;19.930;2022-07-29T02:17:11;30.60;;;20.83;;
17625;SDS011;8931;50.042;19.930;2022-07-29T02:18:14;22.57;;;20.07;;
17625;SDS011;8931;50.042;19.930;2022-07-29T02:19:18;25.67;;;20.03;;
17625;SDS011;8931;50.042;19.930;2022-07-29T02:20:20;22.03;;;19.93;;
17625;SDS011;8931;50.042;19.930;2022-07-29T02:21:24;22.07;;;19.93;;
17625;SDS011;8931;50.042;19.930;2022-07-29T02:22:25;22.13;;;20.20;;
17625;SDS011;8931;50.042;19.930;2022-07-29T02:23:28;21.13;;;19.23;;
17625;SDS011;8931;50.042;19.930;2022-07-29T02:24:31;22.57;;;20.37;;
17625;SDS011;8931;50.042;19.930;2022-07-29T02:25:36;22.37;;;20.10;;
17625;SDS011;8931;50.042;19.930;2022-07-29T02:26:39;22.03;;;20.13;;
17625;SDS011;8931;50.042;19.930;2022-07-29T02:27:42;22.23;;;20.23;;
17625;SDS011;8931;50.042;19.930;2022-07-29T02:28:43;22.77;;;20.60;;
17625;SDS011;8931;50.042;19.930;2022-07-29T02:29:45;22.23;;;19.90;;
17625;SDS011;8931;50.042;19.930;2022-07-29T02:30:48;22.27;;;20.07;;
17625;SDS011;8931;50.042;19.930;2022-07-29T02:31:51;22.43;;;20.20;;
17625;SDS011;8931;50.042;19.930;2022-07-29T02:32:53;22.10;;;20.07;;
17625;SDS011;8931;50.042;19.930;2022-07-29T02:33:57;22.30;;;20.00;;
17625;SDS011;8931;50.042;19.930;2022-07-29T02:34:58;22.50;;;20.20;;
17625;SDS011;8931;50.042;19.930;2022-07-29T02:35:59;21.23;;;19.53;;
17625;SDS011;8931;50.042;19.930;2022-07-29T02:37:01;22.60;;;20.10;;
17625;SDS011;8931;50.042;19.930;2022-07-29T02:38:04;21.23;;;19.20;;
17625;SDS011;8931;50.042;19.930;2022-07-29T02:39:24;21.67;;;19.57;;
17625;SDS011;8931;50.042;19.930;2022-07-29T02:40:27;20.83;;;19.03;;
17625;SDS011;8931;50.042;19.930;2022-07-29T02:41:29;21.40;;;19.50;;
17625;SDS011;8931;50.042;19.930;2022-07-29T02:42:34;21.60;;;19.55;;
17625;SDS011;8931;50.042;19.930;2022-07-29T02:43:36;21.90;;;19.60;;
17625;SDS011;8931;50.042;19.930;2022-07-29T02:44:38;21.80;;;19.50;;
17625;SDS011;8931;50.042;19.930;2022-07-29T02:45:39;22.73;;;19.60;;
17625;SDS011;8931;50.042;19.930;2022-07-29T02:46:44;21.77;;;19.40;;
17625;SDS011;8931;50.042;19.930;2022-07-29T02:47:47;21.90;;;19.90;;
17625;SDS011;8931;50.042;19.930;2022-07-29T02:48:55;21.47;;;19.57;;
17625;SDS011;8931;50.042;19.930;2022-07-29T02:50:00;21.07;;;19.17;;
17625;SDS011;8931;50.042;19.930;2022-07-29T02:51:05;21.47;;;19.47;;
17625;SDS011;8931;50.042;19.930;2022-07-29T02:52:08;20.83;;;19.03;;
17625;SDS011;8931;50.042;19.930;2022-07-29T02:53:15;20.10;;;18.50;;
17625;SDS011;8931;50.042;19.930;2022-07-29T02:54:20;20.80;;;19.00;;
17625;SDS011;8931;50.042;19.930;2022-07-29T02:55:25;20.50;;;18.77;;
17625;SDS011;8931;50.042;19.930;2022-07-29T02:56:29;20.97;;;19.07;;
17625;SDS011;8931;50.042;19.930;2022-07-29T02:57:36;23.47;;;19.50;;
17625;SDS011;8931;50.042;19.930;2022-07-29T02:58:41;20.88;;;19.10;;
17625;SDS011;8931;50.042;19.930;2022-07-29T02:59:46;20.23;;;18.43;;
17625;SDS011;8931;50.042;19.930;2022-07-29T03:00:48;20.50;;;18.60;;
17625;SDS011;8931;50.042;19.930;2022-07-29T03:01:54;20.10;;;18.40;;
17625;SDS011;8931;50.042;19.930;2022-07-29T03:02:56;20.90;;;19.00;;
17625;SDS011;8931;50.042;19.930;2022-07-29T03:04:00;20.05;;;18.30;;
17625;SDS011;8931;50.042;19.930;2022-07-29T03:05:02;19.33;;;17.77;;
17625;SDS011;8931;50.042;19.930;2022-07-29T03:06:05;21.17;;;19.17;;
17625;SDS011;8931;50.042;19.930;2022-07-29T03:07:08;20.37;;;18.60;;
17625;SDS011;8931;50.042;19.930;2022-07-29T03:08:11;20.35;;;18.25;;
17625;SDS011;8931;50.042;19.930;2022-07-29T03:09:12;19.60;;;18.10;;
17625;SDS011;8931;50.042;19.930;2022-07-29T03:10:14;19.88;;;18.20;;
17625;SDS011;8931;50.042;19.930;2022-07-29T03:11:15;20.17;;;18.57;;
17625;SDS011;8931;50.042;19.930;2022-07-29T03:12:17;20.50;;;18.58;;
17625;SDS011;8931;50.042;19.930;2022-07-29T03:13:19;20.25;;;18.58;;
17625;SDS011;8931;50.042;19.930;2022-07-29T03:14:21;20.53;;;18.63;;
17625;SDS011;8931;50.042;19.930;2022-07-29T03:15:23;19.75;;;18.13;;
17625;SDS011;8931;50.042;19.930;2022-07-29T03:16:26;20.00;;;18.40;;
17625;SDS011;8931;50.042;19.930;2022-07-29T03:17:28;20.10;;;18.40;;
17625;SDS011;8931;50.042;19.930;2022-07-29T03:18:31;20.73;;;19.00;;
17625;SDS011;8931;50.042;19.930;2022-07-29T03:19:32;20.75;;;18.85;;
17625;SDS011;8931;50.042;19.930;2022-07-29T03:20:34;19.92;;;18.27;;
17625;SDS011;8931;50.042;19.930;2022-07-29T03:21:37;20.25;;;18.45;;
17625;SDS011;8931;50.042;19.930;2022-07-29T03:22:39;19.73;;;18.15;;
17625;SDS011;8931;50.042;19.930;2022-07-29T03:23:44;19.92;;;18.42;;
17625;SDS011;8931;50.042;19.930;2022-07-29T03:24:47;20.33;;;18.45;;
17625;SDS011;8931;50.042;19.930;2022-07-29T03:25:47;20.57;;;18.87;;
17625;SDS011;8931;50.042;19.930;2022-07-29T03:26:49;20.67;;;18.77;;
17625;SDS011;8931;50.042;19.930;2022-07-29T03:27:50;20.53;;;18.53;;
17625;SDS011;8931;50.042;19.930;2022-07-29T03:28:52;21.02;;;18.90;;
17625;SDS011;8931;50.042;19.930;2022-07-29T03:29:55;20.50;;;18.67;;
17625;SDS011;8931;50.042;19.930;2022-07-29T03:30:59;20.83;;;18.85;;
17625;SDS011;8931;50.042;19.930;2022-07-29T03:32:01;20.90;;;18.90;;
17625;SDS011;8931;50.042;19.930;2022-07-29T03:33:05;20.98;;;19.10;;
17625;SDS011;8931;50.042;19.930;2022-07-29T03:34:06;22.00;;;19.90;;
17625;SDS011;8931;50.042;19.930;2022-07-29T03:35:08;20.27;;;18.50;;
17625;SDS011;8931;50.042;19.930;2022-07-29T03:36:11;20.55;;;18.73;;
17625;SDS011;8931;50.042;19.930;2022-07-29T03:37:15;20.40;;;18.48;;
17625;SDS011;8931;50.042;19.930;2022-07-29T03:38:16;20.47;;;18.53;;
17625;SDS011;8931;50.042;19.930;2022-07-29T03:39:18;20.80;;;18.70;;
17625;SDS011;8931;50.042;19.930;2022-07-29T03:40:22;19.80;;;18.20;;
17625;SDS011;8931;50.042;19.930;2022-07-29T03:41:24;19.83;;;18.05;;
17625;SDS011;8931;50.042;19.930;2022-07-29T03:42:25;19.57;;;17.97;;
17625;SDS011;8931;50.042;19.930;2022-07-29T03:43:29;19.73;;;18.13;;
17625;SDS011;8931;50.042;19.930;2022-07-29T03:44:33;21.23;;;18.73;;
17625;SDS011;8931;50.042;19.930;2022-07-29T03:45:35;20.33;;;18.63;;
17625;SDS011;8931;50.042;19.930;2022-07-29T03:46:37;22.13;;;19.25;;
17625;SDS011;8931;50.042;19.930;2022-07-29T03:47:42;20.63;;;18.58;;
17625;SDS011;8931;50.042;19.930;2022-07-29T03:48:46;20.45;;;18.33;;
17625;SDS011;8931;50.042;19.930;2022-07-29T03:49:50;20.85;;;17.83;;
17625;SDS011;8931;50.042;19.930;2022-07-29T03:50:53;20.17;;;18.13;;
17625;SDS011;8931;50.042;19.930;2022-07-29T03:51:57;20.17;;;18.17;;
17625;SDS011;8931;50.042;19.930;2022-07-29T03:52:57;20.10;;;18.23;;
17625;SDS011;8931;50.042;19.930;2022-07-29T03:54:00;20.65;;;18.55;;
17625;SDS011;8931;50.042;19.930;2022-07-29T03:55:01;19.80;;;18.13;;
17625;SDS011;8931;50.042;19.930;2022-07-29T03:56:04;20.13;;;18.33;;
17625;SDS011;8931;50.042;19.930;2022-07-29T03:57:06;20.87;;;18.87;;
17625;SDS011;8931;50.042;19.930;2022-07-29T03:58:09;20.90;;;18.98;;
17625;SDS011;8931;50.042;19.930;2022-07-29T03:59:11;20.65;;;18.85;;
17625;SDS011;8931;50.042;19.930;2022-07-29T04:00:15;25.88;;;19.00;;
17625;SDS011;8931;50.042;19.930;2022-07-29T04:01:16;20.23;;;18.20;;
17625;SDS011;8931;50.042;19.930;2022-07-29T04:02:18;21.17;;;18.75;;
17625;SDS011;8931;50.042;19.930;2022-07-29T04:03:21;22.00;;;19.83;;
17625;SDS011;8931;50.042;19.930;2022-07-29T04:04:25;22.83;;;19.40;;
17625;SDS011;8931;50.042;19.930;2022-07-29T04:05:26;21.35;;;19.15;;
17625;SDS011;8931;50.042;19.930;2022-07-29T04:06:27;21.77;;;19.67;;
17625;SDS011;8931;50.042;19.930;2022-07-29T04:07:28;22.03;;;19.83;;
17625;SDS011;8931;50.042;19.930;2022-07-29T04:08:30;20.58;;;18.77;;
17625;SDS011;8931;50.042;19.930;2022-07-29T04:09:30;21.70;;;19.43;;
17625;SDS011;8931;50.042;19.930;2022-07-29T04:10:32;21.85;;;19.45;;
17625;SDS011;8931;50.042;19.930;2022-07-29T04:11:33;21.50;;;19.50;;
17625;SDS011;8931;50.042;19.930;2022-07-29T04:12:37;21.87;;;19.53;;
17625;SDS011;8931;50.042;19.930;2022-07-29T04:13:38;21.77;;;19.77;;
17625;SDS011;8931;50.042;19.930;2022-07-29T04:14:40;21.25;;;19.10;;
17625;SDS011;8931;50.042;19.930;2022-07-29T04:15:40;22.33;;;20.13;;
17625;SDS011;8931;50.042;19.930;2022-07-29T04:16:42;21.60;;;19.57;;
17625;SDS011;8931;50.042;19.930;2022-07-29T04:17:46;21.50;;;19.40;;
17625;SDS011;8931;50.042;19.930;2022-07-29T04:18:48;21.15;;;19.23;;
17625;SDS011;8931;50.042;19.930;2022-07-29T04:19:51;20.63;;;18.67;;
17625;SDS011;8931;50.042;19.930;2022-07-29T04:20:52;21.27;;;19.13;;
17625;SDS011;8931;50.042;19.930;2022-07-29T04:21:53;20.50;;;18.50;;
17625;SDS011;8931;50.042;19.930;2022-07-29T04:22:54;20.00;;;18.10;;
17625;SDS011;8931;50.042;19.930;2022-07-29T04:23:58;20.30;;;18.40;;
17625;SDS011;8931;50.042;19.930;2022-07-29T04:25:00;20.27;;;18.20;;
17625;SDS011;8931;50.042;19.930;2022-07-29T04:26:03;21.30;;;18.95;;
17625;SDS011;8931;50.042;19.930;2022-07-29T04:27:04;23.00;;;19.60;;
17625;SDS011;8931;50.042;19.930;2022-07-29T04:28:06;22.20;;;19.73;;
17625;SDS011;8931;50.042;19.930;2022-07-29T04:29:07;20.90;;;19.00;;
17625;SDS011;8931;50.042;19.930;2022-07-29T04:30:09;20.80;;;18.90;;
17625;SDS011;8931;50.042;19.930;2022-07-29T04:31:11;21.03;;;18.97;;
17625;SDS011;8931;50.042;19.930;2022-07-29T04:32:13;20.97;;;18.80;;
17625;SDS011;8931;50.042;19.930;2022-07-29T04:33:15;21.35;;;19.25;;
17625;SDS011;8931;50.042;19.930;2022-07-29T04:34:17;23.45;;;19.00;;
17625;SDS011;8931;50.042;19.930;2022-07-29T04:35:19;27.47;;;19.47;;
17625;SDS011;8931;50.042;19.930;2022-07-29T04:36:21;21.17;;;18.93;;
17625;SDS011;8931;50.042;19.930;2022-07-29T04:37:22;20.93;;;18.70;;
17625;SDS011;8931;50.042;19.930;2022-07-29T04:38:24;20.20;;;18.40;;
17625;SDS011;8931;50.042;19.930;2022-07-29T04:39:26;20.50;;;18.53;;
17625;SDS011;8931;50.042;19.930;2022-07-29T04:40:28;20.07;;;18.10;;
17625;SDS011;8931;50.042;19.930;2022-07-29T04:41:29;22.83;;;19.27;;
17625;SDS011;8931;50.042;19.930;2022-07-29T04:42:31;22.20;;;19.43;;
17625;SDS011;8931;50.042;19.930;2022-07-29T04:43:32;20.63;;;18.58;;
17625;SDS011;8931;50.042;19.930;2022-07-29T04:44:33;20.63;;;18.60;;
17625;SDS011;8931;50.042;19.930;2022-07-29T04:45:35;20.27;;;18.13;;
17625;SDS011;8931;50.042;19.930;2022-07-29T04:46:38;22.93;;;18.13;;
17625;SDS011;8931;50.042;19.930;2022-07-29T04:47:43;25.13;;;18.87;;
17625;SDS011;8931;50.042;19.930;2022-07-29T04:48:44;20.43;;;18.67;;
17625;SDS011;8931;50.042;19.930;2022-07-29T04:49:46;20.17;;;18.10;;
17625;SDS011;8931;50.042;19.930;2022-07-29T04:50:48;20.37;;;18.30;;
17625;SDS011;8931;50.042;19.930;2022-07-29T04:51:50;19.23;;;17.63;;
17625;SDS011;8931;50.042;19.930;2022-07-29T04:52:50;19.80;;;18.00;;
17625;SDS011;8931;50.042;19.930;2022-07-29T04:53:52;20.00;;;18.30;;
17625;SDS011;8931;50.042;19.930;2022-07-29T04:54:53;20.63;;;18.57;;
17625;SDS011;8931;50.042;19.930;2022-07-29T04:55:55;20.07;;;18.33;;
17625;SDS011;8931;50.042;19.930;2022-07-29T04:56:55;23.93;;;18.00;;
17625;SDS011;8931;50.042;19.930;2022-07-29T04:57:57;19.53;;;17.70;;
17625;SDS011;8931;50.042;19.930;2022-07-29T04:58:58;19.43;;;17.73;;
17625;SDS011;8931;50.042;19.930;2022-07-29T05:00:01;22.40;;;18.37;;
17625;SDS011;8931;50.042;19.930;2022-07-29T05:01:04;19.67;;;17.83;;
17625;SDS011;8931;50.042;19.930;2022-07-29T05:02:05;19.77;;;17.97;;
17625;SDS011;8931;50.042;19.930;2022-07-29T05:03:06;20.60;;;18.60;;
17625;SDS011;8931;50.042;19.930;2022-07-29T05:04:07;20.30;;;18.40;;
17625;SDS011;8931;50.042;19.930;2022-07-29T05:05:08;19.50;;;18.00;;
17625;SDS011;8931;50.042;19.930;2022-07-29T05:06:11;20.80;;;18.70;;
17625;SDS011;8931;50.042;19.930;2022-07-29T05:07:12;20.10;;;18.20;;
17625;SDS011;8931;50.042;19.930;2022-07-29T05:08:16;20.73;;;18.53;;
17625;SDS011;8931;50.042;19.930;2022-07-29T05:09:18;20.27;;;18.53;;
17625;SDS011;8931;50.042;19.930;2022-07-29T05:10:20;21.10;;;19.03;;
17625;SDS011;8931;50.042;19.930;2022-07-29T05:11:20;20.47;;;18.60;;
17625;SDS011;8931;50.042;19.930;2022-07-29T05:12:22;21.23;;;19.10;;
17625;SDS011;8931;50.042;19.930;2022-07-29T05:13:23;20.40;;;18.53;;
17625;SDS011;8931;50.042;19.930;2022-07-29T05:14:28;19.70;;;18.10;;
17625;SDS011;8931;50.042;19.930;2022-07-29T05:15:31;20.90;;;18.93;;
17625;SDS011;8931;50.042;19.930;2022-07-29T05:16:32;19.90;;;18.20;;
17625;SDS011;8931;50.042;19.930;2022-07-29T05:17:33;20.37;;;18.53;;
17625;SDS011;8931;50.042;19.930;2022-07-29T05:18:35;20.63;;;18.57;;
17625;SDS011;8931;50.042;19.930;2022-07-29T05:19:36;19.30;;;17.80;;
17625;SDS011;8931;50.042;19.930;2022-07-29T05:20:41;20.33;;;18.30;;
17625;SDS011;8931;50.042;19.930;2022-07-29T05:21:45;20.90;;;18.07;;
17625;SDS011;8931;50.042;19.930;2022-07-29T05:22:47;20.73;;;18.57;;
17625;SDS011;8931;50.042;19.930;2022-07-29T05:23:48;22.37;;;18.30;;
17625;SDS011;8931;50.042;19.930;2022-07-29T05:24:49;20.40;;;18.40;;
17625;SDS011;8931;50.042;19.930;2022-07-29T05:25:50;20.83;;;18.73;;
17625;SDS011;8931;50.042;19.930;2022-07-29T05:26:54;19.43;;;17.83;;
17625;SDS011;8931;50.042;19.930;2022-07-29T05:27:55;24.67;;;18.50;;
17625;SDS011;8931;50.042;19.930;2022-07-29T05:28:58;20.00;;;18.20;;
17625;SDS011;8931;50.042;19.930;2022-07-29T05:30:00;19.90;;;18.20;;
17625;SDS011;8931;50.042;19.930;2022-07-29T05:31:02;19.50;;;17.90;;
17625;SDS011;8931;50.042;19.930;2022-07-29T05:32:03;20.60;;;18.57;;
17625;SDS011;8931;50.042;19.930;2022-07-29T05:33:05;20.97;;;19.00;;
17625;SDS011;8931;50.042;19.930;2022-07-29T05:34:06;20.47;;;18.70;;
17625;SDS011;8931;50.042;19.930;2022-07-29T05:35:08;20.00;;;18.10;;
17625;SDS011;8931;50.042;19.930;2022-07-29T05:36:12;23.63;;;17.93;;
17625;SDS011;8931;50.042;19.930;2022-07-29T05:37:15;20.27;;;18.37;;
17625;SDS011;8931;50.042;19.930;2022-07-29T05:38:16;20.27;;;18.17;;
17625;SDS011;8931;50.042;19.930;2022-07-29T05:39:17;19.73;;;18.03;;
17625;SDS011;8931;50.042;19.930;2022-07-29T05:40:19;20.07;;;18.23;;
17625;SDS011;8931;50.042;19.930;2022-07-29T05:41:21;20.30;;;18.30;;
17625;SDS011;8931;50.042;19.930;2022-07-29T05:42:25;20.73;;;18.67;;
17625;SDS011;8931;50.042;19.930;2022-07-29T05:43:26;21.43;;;18.77;;
17625;SDS011;8931;50.042;19.930;2022-07-29T05:44:30;20.90;;;18.90;;
17625;SDS011;8931;50.042;19.930;2022-07-29T05:45:30;20.73;;;18.80;;
17625;SDS011;8931;50.042;19.930;2022-07-29T05:46:32;21.30;;;18.80;;
17625;SDS011;8931;50.042;19.930;2022-07-29T05:47:32;19.73;;;17.93;;
17625;SDS011;8931;50.042;19.930;2022-07-29T05:48:35;19.33;;;17.57;;
17625;SDS011;8931;50.042;19.930;2022-07-29T05:49:36;19.77;;;17.80;;
17625;SDS011;8931;50.042;19.930;2022-07-29T05:50:38;20.70;;;18.80;;
17625;SDS011;8931;50.042;19.930;2022-07-29T05:51:39;20.00;;;18.00;;
17625;SDS011;8931;50.042;19.930;2022-07-29T05:52:42;20.43;;;18.43;;
17625;SDS011;8931;50.042;19.930;2022-07-29T05:53:43;20.70;;;18.53;;
17625;SDS011;8931;50.042;19.930;2022-07-29T05:54:45;21.37;;;18.97;;
17625;SDS011;8931;50.042;19.930;2022-07-29T05:55:47;20.37;;;18.57;;
17625;SDS011;8931;50.042;19.930;2022-07-29T05:56:48;20.73;;;18.70;;
17625;SDS011;8931;50.042;19.930;2022-07-29T05:57:51;20.47;;;18.87;;
17625;SDS011;8931;50.042;19.930;2022-07-29T05:58:52;20.47;;;18.73;;
17625;SDS011;8931;50.042;19.930;2022-07-29T05:59:53;20.80;;;18.90;;
17625;SDS011;8931;50.042;19.930;2022-07-29T06:00:54;21.27;;;19.20;;
17625;SDS011;8931;50.042;19.930;2022-07-29T06:01:59;20.83;;;18.67;;
17625;SDS011;8931;50.042;19.930;2022-07-29T06:03:02;21.33;;;18.50;;
17625;SDS011;8931;50.042;19.930;2022-07-29T06:04:04;20.80;;;18.30;;
17625;SDS011;8931;50.042;19.930;2022-07-29T06:05:06;20.00;;;18.10;;
17625;SDS011;8931;50.042;19.930;2022-07-29T06:06:08;20.07;;;18.27;;
17625;SDS011;8931;50.042;19.930;2022-07-29T06:07:09;20.33;;;18.73;;
17625;SDS011;8931;50.042;19.930;2022-07-29T06:08:13;20.10;;;18.27;;
17625;SDS011;8931;50.042;19.930;2022-07-29T06:09:14;19.77;;;18.10;;
17625;SDS011;8931;50.042;19.930;2022-07-29T06:10:17;20.00;;;18.43;;